Terminal Aerodrome Forecast
Issued by NWS

Home | Current Version | Previous Version | Text Only | Print | Product List | Glossary On
Versions: 1 2 3 4 5 6 7 8 9 10 11 12 13 14 15 16 17 18
000
FTUS43 KDMX 252334
TAFMCW
TAF
KMCW 252334Z 2600/2624 15010KT P6SM VCSH SCT035 BKN120
     FM260900 12006KT P6SM SCT030 BKN070
     FM261500 VRB05KT P6SM VCSH BKN030
      TEMPO 2616/2619 4SM -TSRA OVC020CB
     FM262200 32006KT P6SM SCT040=

USA.gov is the U.S. government's official web portal to all federal, state and local government web resources and services.